Time;durP1;ratioP1;P1;durP2;ratioP2;P2;SDS_P1;SDS_P2;PMS_P1;PMS_P2;Temp;Humidity;BMP_temperature;BMP_pressure;BME280_temperature;BME280_humidity;BME280_pressure;Samples;Min_cycle;Max_cycle;Signal;HPM_P1;HPM_P2
2023/04/16 00:00:35;;;;;;;17.38;10.25;;;;;;;;;;5092951;28;20046;-68
2023/04/16 00:03:02;;;;;;;19.88;9.77;;;;;;;;;;5092757;28;20044;-66
2023/04/16 00:05:30;;;;;;;16.20;9.75;;;;;;;;;;5092985;28;20064;-66
2023/04/16 00:07:57;;;;;;;15.50;9.95;;;;;;;;;;5091777;28;20485;-66
2023/04/16 00:10:25;;;;;;;14.85;10.73;;;;;;;;;;5092853;28;20550;-67
2023/04/16 00:12:52;;;;;;;17.85;10.75;;;;;;;;;;5092763;28;20111;-66
2023/04/16 00:15:20;;;;;;;15.40;10.80;;;;;;;;;;5092760;28;20111;-66
2023/04/16 00:17:47;;;;;;;17.95;10.50;;;;;;;;;;5092826;28;20089;-66
2023/04/16 00:20:15;;;;;;;19.80;11.10;;;;;;;;;;5092605;28;20044;-67
2023/04/16 00:22:43;;;;;;;15.55;10.32;;;;;;;;;;5091513;28;20032;-66
2023/04/16 00:25:10;;;;;;;15.88;10.93;;;;;;;;;;5092666;28;20090;-66
2023/04/16 00:27:37;;;;;;;18.08;10.55;;;;;;;;;;5092980;28;20052;-66
2023/04/16 00:30:06;;;;;;;20.30;11.55;;;;;;;;;;5092584;28;20046;-66
2023/04/16 00:32:33;;;;;;;16.75;12.30;;;;;;;;;;5074916;28;20115;-66
2023/04/16 00:35:01;;;;;;;19.30;12.07;;;;;;;;;;5092543;28;20032;-66
2023/04/16 00:37:28;;;;;;;19.33;12.32;;;;;;;;;;5074668;28;20048;-68
2023/04/16 00:39:56;;;;;;;21.73;12.52;;;;;;;;;;5092615;28;20478;-68
2023/04/16 00:42:23;;;;;;;20.38;12.77;;;;;;;;;;5092663;28;20436;-68
2023/04/16 00:44:50;;;;;;;18.33;11.88;;;;;;;;;;5074357;28;20044;-66
2023/04/16 00:47:19;;;;;;;18.23;11.90;;;;;;;;;;5092800;28;20044;-67
2023/04/16 00:49:47;;;;;;;16.83;11.20;;;;;;;;;;5091472;28;20048;-66
2023/04/16 00:52:14;;;;;;;16.67;11.43;;;;;;;;;;5092463;28;20072;-67
2023/04/16 00:54:42;;;;;;;17.98;11.32;;;;;;;;;;5090883;28;20051;-67
2023/04/16 00:57:09;;;;;;;17.67;11.25;;;;;;;;;;5092478;28;20056;-66
2023/04/16 00:59:37;;;;;;;15.65;10.60;;;;;;;;;;5095105;28;20093;-67
2023/04/16 01:02:05;;;;;;;14.30;9.95;;;;;;;;;;5096212;28;20036;-66
2023/04/16 01:04:32;;;;;;;16.35;10.10;;;;;;;;;;5096133;28;20105;-66
2023/04/16 01:07:00;;;;;;;14.05;9.75;;;;;;;;;;5096119;28;20036;-66
2023/04/16 01:09:28;;;;;;;13.52;10.02;;;;;;;;;;5061486;28;20577;-67
2023/04/16 01:11:55;;;;;;;13.85;9.50;;;;;;;;;;5094968;28;20511;-67
2023/04/16 01:14:23;;;;;;;15.60;9.73;;;;;;;;;;5077718;28;20044;-67
2023/04/16 01:16:50;;;;;;;11.93;8.45;;;;;;;;;;5094583;28;20085;-67
2023/04/16 01:19:18;;;;;;;13.98;8.40;;;;;;;;;;5077686;28;20219;-67
2023/04/16 01:21:45;;;;;;;12.82;8.45;;;;;;;;;;5095901;28;20482;-67
2023/04/16 01:24:13;;;;;;;13.48;8.38;;;;;;;;;;5094554;28;20054;-67
2023/04/16 01:26:40;;;;;;;14.43;8.40;;;;;;;;;;5094453;28;20044;-67
2023/04/16 01:29:08;;;;;;;12.75;8.40;;;;;;;;;;5094616;28;20063;-67
2023/04/16 01:31:36;;;;;;;12.75;8.45;;;;;;;;;;5095873;28;20039;-67
2023/04/16 01:34:08;;;;;;;12.38;7.63;;;;;;;;;;5094639;28;20040;-67
2023/04/16 01:36:36;;;;;;;14.10;8.18;;;;;;;;;;5077663;28;20055;-67
2023/04/16 01:39:04;;;;;;;12.40;7.97;;;;;;;;;;5094136;28;20117;-67
2023/04/16 01:41:31;;;;;;;11.50;7.93;;;;;;;;;;5095595;28;20104;-67
2023/04/16 01:43:59;;;;;;;14.95;8.40;;;;;;;;;;5094206;28;20040;-67
2023/04/16 01:46:28;;;;;;;13.85;7.95;;;;;;;;;;5095230;28;20056;-67
2023/04/16 01:48:56;;;;;;;13.77;8.70;;;;;;;;;;5077154;28;20043;-67
2023/04/16 01:51:23;;;;;;;13.57;8.48;;;;;;;;;;5094167;28;20040;-67
2023/04/16 01:53:51;;;;;;;17.70;9.00;;;;;;;;;;5077170;28;20036;-67
2023/04/16 01:56:18;;;;;;;11.32;8.43;;;;;;;;;;5057256;28;20513;-67
2023/04/16 01:58:46;;;;;;;14.15;9.45;;;;;;;;;;5090599;28;20048;-67
2023/04/16 02:01:16;;;;;;;13.70;9.20;;;;;;;;;;5090589;28;20053;-67
2023/04/16 02:03:45;;;;;;;13.07;8.45;;;;;;;;;;5073608;28;20044;-67
2023/04/16 02:06:14;;;;;;;14.45;8.73;;;;;;;;;;5073517;28;20048;-67
2023/04/16 02:08:42;;;;;;;12.25;9.05;;;;;;;;;;5089570;28;20048;-67
2023/04/16 02:11:10;;;;;;;13.25;8.80;;;;;;;;;;5073405;28;20114;-67
2023/04/16 02:13:37;;;;;;;14.73;9.07;;;;;;;;;;5073539;28;20513;-67
2023/04/16 02:16:05;;;;;;;17.10;9.75;;;;;;;;;;5073295;28;20045;-67
2023/04/16 02:18:53;;;;;;;13.90;8.93;;;;;;;;;;5073898;28;20084;-67
2023/04/16 02:21:23;;;;;;;15.95;9.57;;;;;;;;;;5073290;28;20138;-67
2023/04/16 02:23:50;;;;;;;16.92;10.20;;;;;;;;;;5073242;28;20048;-67
2023/04/16 02:26:25;;;;;;;14.55;10.52;;;;;;;;;;5073255;28;20124;-67
2023/04/16 02:28:55;;;;;;;14.93;9.73;;;;;;;;;;5089956;28;20045;-67
2023/04/16 02:31:27;;;;;;;13.40;9.32;;;;;;;;;;5073189;28;20135;-68
2023/04/16 02:33:56;;;;;;;18.42;9.70;;;;;;;;;;5089802;28;20443;-66
2023/04/16 02:36:24;;;;;;;16.95;10.18;;;;;;;;;;5089852;28;20501;-67
2023/04/16 02:38:53;;;;;;;17.02;10.00;;;;;;;;;;5072922;28;20419;-67
2023/04/16 02:41:21;;;;;;;17.25;9.57;;;;;;;;;;5074180;28;20048;-67
2023/04/16 02:43:48;;;;;;;14.68;9.70;;;;;;;;;;5072813;28;20048;-67
2023/04/16 02:46:16;;;;;;;15.88;9.88;;;;;;;;;;5072820;28;20090;-67
2023/04/16 02:48:43;;;;;;;14.02;9.70;;;;;;;;;;5072638;28;20087;-67
2023/04/16 02:51:11;;;;;;;12.98;8.50;;;;;;;;;;5072611;28;20045;-66
2023/04/16 02:53:38;;;;;;;13.85;9.05;;;;;;;;;;5072531;28;20505;-67
2023/04/16 02:56:06;;;;;;;13.23;8.70;;;;;;;;;;5072313;28;20558;-67
2023/04/16 02:58:34;;;;;;;13.60;8.63;;;;;;;;;;5073665;28;20068;-66
2023/04/16 03:01:01;;;;;;;15.88;9.52;;;;;;;;;;5072421;28;20045;-66
2023/04/16 03:03:29;;;;;;;13.68;8.55;;;;;;;;;;5072310;28;20064;-67
2023/04/16 03:05:56;;;;;;;13.55;8.38;;;;;;;;;;5089075;28;20482;-67
2023/04/16 03:08:24;;;;;;;12.90;8.55;;;;;;;;;;5089219;28;20036;-67
2023/04/16 03:10:51;;;;;;;14.00;8.40;;;;;;;;;;5072257;28;20036;-67
2023/04/16 03:13:19;;;;;;;13.18;9.15;;;;;;;;;;5072234;28;20072;-67
2023/04/16 03:15:50;;;;;;;13.55;8.63;;;;;;;;;;5055772;28;20057;-67
2023/04/16 03:18:17;;;;;;;13.40;7.90;;;;;;;;;;5088946;28;20124;-67
2023/04/16 03:20:45;;;;;;;12.35;8.05;;;;;;;;;;5072043;28;20074;-67
2023/04/16 03:23:12;;;;;;;15.15;8.48;;;;;;;;;;5072002;28;20047;-67
2023/04/16 03:25:40;;;;;;;13.52;8.00;;;;;;;;;;5088809;28;20083;-67
2023/04/16 03:28:08;;;;;;;14.55;8.63;;;;;;;;;;5073159;28;20516;-67
2023/04/16 03:30:37;;;;;;;13.52;8.10;;;;;;;;;;5072223;28;20048;-68
2023/04/16 03:33:05;;;;;;;13.15;8.05;;;;;;;;;;5089326;28;20043;-67
2023/04/16 03:35:34;;;;;;;13.38;8.68;;;;;;;;;;5071777;28;20127;-68
2023/04/16 03:38:02;;;;;;;21.90;8.20;;;;;;;;;;5071738;28;20386;-67
2023/04/16 03:40:29;;;;;;;14.73;8.18;;;;;;;;;;5071881;28;20102;-67
2023/04/16 03:42:58;;;;;;;12.75;7.75;;;;;;;;;;5055940;28;20102;-67
2023/04/16 03:45:27;;;;;;;14.60;8.20;;;;;;;;;;5088668;28;20490;-67
2023/04/16 03:47:55;;;;;;;15.18;8.10;;;;;;;;;;5088901;28;20387;-67
2023/04/16 03:50:25;;;;;;;14.55;7.20;;;;;;;;;;5071794;28;20048;-67
2023/04/16 03:52:52;;;;;;;13.27;7.78;;;;;;;;;;5072069;28;20044;-67
2023/04/16 03:55:20;;;;;;;13.50;7.72;;;;;;;;;;5071800;28;20076;-67
2023/04/16 03:57:47;;;;;;;12.20;6.80;;;;;;;;;;5071700;28;20092;-67
2023/04/16 04:00:17;;;;;;;13.52;7.78;;;;;;;;;;5072014;28;20059;-67
2023/04/16 04:02:57;;;;;;;15.70;7.68;;;;;;;;;;5071640;28;20096;-67
2023/04/16 04:05:25;;;;;;;13.00;7.28;;;;;;;;;;5071805;28;20048;-68
2023/04/16 04:07:52;;;;;;;12.85;7.60;;;;;;;;;;5071598;28;20433;-67
2023/04/16 04:10:20;;;;;;;10.98;7.28;;;;;;;;;;5072849;28;20117;-66
2023/04/16 04:12:47;;;;;;;12.15;7.50;;;;;;;;;;5071485;28;20044;-67
2023/04/16 04:15:15;;;;;;;10.73;7.03;;;;;;;;;;5088130;28;20044;-66
2023/04/16 04:17:42;;;;;;;10.68;6.95;;;;;;;;;;5071553;28;20037;-67
2023/04/16 04:20:10;;;;;;;10.63;7.00;;;;;;;;;;5072705;28;20044;-66
2023/04/16 04:22:38;;;;;;;12.82;7.00;;;;;;;;;;5071522;28;20069;-66
2023/04/16 04:25:07;;;;;;;11.90;7.13;;;;;;;;;;5071307;28;20063;-66
2023/04/16 04:27:34;;;;;;;11.90;6.47;;;;;;;;;;5055133;28;20525;-67
2023/04/16 04:30:03;;;;;;;11.75;6.95;;;;;;;;;;5071572;28;20059;-66
2023/04/16 04:32:32;;;;;;;13.68;7.35;;;;;;;;;;5090462;28;20040;-67
2023/04/16 04:35:01;;;;;;;12.77;6.97;;;;;;;;;;5075295;28;20107;-66
2023/04/16 04:37:29;;;;;;;15.57;8.27;;;;;;;;;;5077025;28;20036;-67
2023/04/16 04:39:56;;;;;;;13.70;8.75;;;;;;;;;;5092339;28;20048;-66
2023/04/16 04:42:24;;;;;;;12.27;6.97;;;;;;;;;;5092210;28;20043;-67
2023/04/16 04:44:53;;;;;;;11.40;7.07;;;;;;;;;;5075091;28;20051;-67
2023/04/16 04:47:21;;;;;;;12.45;6.82;;;;;;;;;;5074932;28;20402;-66
2023/04/16 04:49:49;;;;;;;11.02;6.78;;;;;;;;;;5075256;28;20513;-67
2023/04/16 04:52:16;;;;;;;12.10;6.75;;;;;;;;;;5074965;28;20094;-67
2023/04/16 04:54:44;;;;;;;11.02;6.97;;;;;;;;;;5075287;28;20051;-67
2023/04/16 04:57:11;;;;;;;13.55;6.15;;;;;;;;;;5089013;28;20398;-67
2023/04/16 04:59:39;;;;;;;13.90;6.32;;;;;;;;;;5078025;28;20101;-67
2023/04/16 05:02:07;;;;;;;11.68;6.93;;;;;;;;;;5045589;28;20109;-67
2023/04/16 05:04:34;;;;;;;11.88;7.20;;;;;;;;;;5096117;28;20046;-67
2023/04/16 05:07:02;;;;;;;11.27;6.85;;;;;;;;;;5096241;28;20040;-67
2023/04/16 05:09:30;;;;;;;10.75;6.47;;;;;;;;;;5078384;28;20040;-67
2023/04/16 05:11:57;;;;;;;12.57;6.32;;;;;;;;;;5096115;28;20115;-67
2023/04/16 05:14:27;;;;;;;11.98;6.97;;;;;;;;;;5095892;28;20442;-67
2023/04/16 05:16:55;;;;;;;12.73;7.65;;;;;;;;;;5096450;28;20044;-67
2023/04/16 05:19:22;;;;;;;12.85;6.40;;;;;;;;;;5096086;28;20039;-67
2023/04/16 05:21:50;;;;;;;11.70;6.55;;;;;;;;;;5095853;28;20600;-67
2023/04/16 05:24:17;;;;;;;13.05;7.57;;;;;;;;;;5095778;28;20046;-67
2023/04/16 05:26:45;;;;;;;14.43;8.60;;;;;;;;;;5095961;28;20036;-67
2023/04/16 05:29:12;;;;;;;14.77;7.10;;;;;;;;;;5095777;28;20048;-68
2023/04/16 05:31:40;;;;;;;12.77;7.35;;;;;;;;;;5095998;28;20405;-68
2023/04/16 05:34:07;;;;;;;14.90;6.60;;;;;;;;;;5095644;28;20042;-67
2023/04/16 05:36:35;;;;;;;10.35;5.68;;;;;;;;;;5094239;28;20064;-67
2023/04/16 05:39:02;;;;;;;11.77;6.65;;;;;;;;;;5095455;28;20081;-68
2023/04/16 05:41:30;;;;;;;12.85;6.50;;;;;;;;;;5095424;28;20485;-66
2023/04/16 05:43:57;;;;;;;10.13;6.40;;;;;;;;;;5076384;28;20064;-66
2023/04/16 05:46:25;;;;;;;9.75;5.95;;;;;;;;;;5095619;28;20508;-67
2023/04/16 05:48:53;;;;;;;9.20;5.95;;;;;;;;;;5095630;28;20036;-67
2023/04/16 05:51:21;;;;;;;8.60;4.90;;;;;;;;;;5095128;28;20496;-66
2023/04/16 05:53:49;;;;;;;11.80;5.35;;;;;;;;;;5095149;28;20085;-68
2023/04/16 05:56:16;;;;;;;9.02;4.88;;;;;;;;;;5094969;28;20062;-68
2023/04/16 05:58:44;;;;;;;10.23;5.38;;;;;;;;;;5095101;28;20036;-68
2023/04/16 06:01:13;;;;;;;11.55;5.70;;;;;;;;;;5095043;28;20044;-68
2023/04/16 06:03:40;;;;;;;10.52;5.43;;;;;;;;;;5095322;28;20044;-68
2023/04/16 06:06:08;;;;;;;8.38;5.32;;;;;;;;;;5094921;28;20040;-68
2023/04/16 06:08:35;;;;;;;9.45;5.57;;;;;;;;;;5095092;28;20040;-68
2023/04/16 06:11:03;;;;;;;13.30;4.90;;;;;;;;;;5093721;28;20044;-69
2023/04/16 06:13:30;;;;;;;9.35;4.63;;;;;;;;;;5094866;28;20040;-68
2023/04/16 06:15:58;;;;;;;10.55;5.13;;;;;;;;;;5094454;28;20036;-68
2023/04/16 06:18:25;;;;;;;8.95;4.57;;;;;;;;;;5094621;28;20040;-68
2023/04/16 06:20:53;;;;;;;9.65;5.00;;;;;;;;;;5094745;28;20074;-68
2023/04/16 06:23:20;;;;;;;8.05;4.82;;;;;;;;;;5094520;28;20040;-68
2023/04/16 06:25:48;;;;;;;9.07;5.13;;;;;;;;;;5093243;28;20531;-68
2023/04/16 06:28:15;;;;;;;11.60;5.38;;;;;;;;;;5094749;28;20086;-68
2023/04/16 06:30:43;;;;;;;10.82;5.00;;;;;;;;;;5094724;28;20416;-69
2023/04/16 06:33:11;;;;;;;10.35;4.85;;;;;;;;;;5094522;28;20044;-69
2023/04/16 06:35:38;;;;;;;10.27;4.53;;;;;;;;;;5094529;28;20047;-68
2023/04/16 06:38:06;;;;;;;10.07;4.93;;;;;;;;;;5094506;28;20040;-69
2023/04/16 06:40:35;;;;;;;10.40;5.80;;;;;;;;;;5094316;28;20435;-69
2023/04/16 06:43:03;;;;;;;13.13;6.22;;;;;;;;;;5094224;28;20050;-68
2023/04/16 06:45:31;;;;;;;11.63;5.80;;;;;;;;;;5094181;28;20728;-67
2023/04/16 06:47:58;;;;;;;10.68;5.68;;;;;;;;;;5092952;28;20424;-67
2023/04/16 06:50:27;;;;;;;8.93;5.50;;;;;;;;;;5094492;28;20063;-69
2023/04/16 06:52:55;;;;;;;8.80;4.57;;;;;;;;;;5093964;28;20040;-69
2023/04/16 06:55:22;;;;;;;12.05;5.68;;;;;;;;;;5093641;28;20481;-69
2023/04/16 06:57:50;;;;;;;13.50;6.53;;;;;;;;;;5094106;28;20083;-69
2023/04/16 07:00:17;;;;;;;15.07;7.68;;;;;;;;;;5094031;28;20051;-69
2023/04/16 07:02:45;;;;;;;10.10;5.38;;;;;;;;;;5094115;28;20040;-69
2023/04/16 07:05:12;;;;;;;16.75;8.05;;;;;;;;;;5093876;28;20393;-69
2023/04/16 07:07:40;;;;;;;13.25;5.65;;;;;;;;;;5075526;28;20573;-69
2023/04/16 07:10:08;;;;;;;10.27;5.35;;;;;;;;;;5093688;28;20085;-69
2023/04/16 07:12:35;;;;;;;10.35;6.22;;;;;;;;;;5092451;28;20061;-69
2023/04/16 07:15:03;;;;;;;14.27;6.93;;;;;;;;;;5093963;28;20078;-69
2023/04/16 07:17:30;;;;;;;10.10;5.05;;;;;;;;;;5093679;28;20052;-69
2023/04/16 07:19:58;;;;;;;9.77;5.00;;;;;;;;;;5075979;28;20113;-69
2023/04/16 07:22:25;;;;;;;12.60;6.10;;;;;;;;;;5092392;28;20050;-70
2023/04/16 07:24:52;;;;;;;12.00;5.80;;;;;;;;;;5093583;28;20482;-69
2023/04/16 07:27:20;;;;;;;11.82;5.65;;;;;;;;;;5093472;28;20045;-69
2023/04/16 07:29:49;;;;;;;12.43;5.03;;;;;;;;;;5093492;28;20067;-69
2023/04/16 07:32:16;;;;;;;10.05;4.68;;;;;;;;;;5093734;28;20486;-69
2023/04/16 07:34:44;;;;;;;10.32;4.22;;;;;;;;;;5093406;28;20416;-69
2023/04/16 07:37:11;;;;;;;7.60;3.92;;;;;;;;;;5093232;28;20508;-69
2023/04/16 07:39:39;;;;;;;10.70;4.70;;;;;;;;;;5093644;28;20036;-69
2023/04/16 07:42:06;;;;;;;8.10;4.13;;;;;;;;;;5093079;28;20500;-69
2023/04/16 07:44:33;;;;;;;12.88;4.30;;;;;;;;;;5093051;28;20462;-68
2023/04/16 07:47:01;;;;;;;9.25;4.43;;;;;;;;;;5093153;28;20632;-68
2023/04/16 07:49:31;;;;;;;12.82;4.68;;;;;;;;;;5091920;28;20412;-68
2023/04/16 07:51:59;;;;;;;7.90;4.30;;;;;;;;;;5092936;28;20048;-68
2023/04/16 07:54:26;;;;;;;11.02;3.80;;;;;;;;;;5075147;28;20048;-68
2023/04/16 07:56:55;;;;;;;12.82;4.40;;;;;;;;;;5092921;28;20098;-68
2023/04/16 07:59:22;;;;;;;9.20;4.53;;;;;;;;;;5093062;28;20039;-68
2023/04/16 08:01:52;;;;;;;11.95;4.65;;;;;;;;;;5093180;28;20425;-68
2023/04/16 08:04:23;;;;;;;8.90;4.00;;;;;;;;;;5092079;28;20113;-69
2023/04/16 08:06:53;;;;;;;9.63;4.10;;;;;;;;;;5092123;28;20044;-69
2023/04/16 08:09:21;;;;;;;10.10;4.30;;;;;;;;;;5093370;28;20049;-68
2023/04/16 08:11:49;;;;;;;9.18;4.40;;;;;;;;;;5092941;28;20040;-68
2023/04/16 08:14:17;;;;;;;14.27;4.20;;;;;;;;;;5093017;28;20074;-68
2023/04/16 08:16:44;;;;;;;9.88;3.97;;;;;;;;;;5091675;28;20420;-69
2023/04/16 08:19:12;;;;;;;11.40;4.78;;;;;;;;;;5091574;28;20486;-69
2023/04/16 08:21:39;;;;;;;12.07;4.70;;;;;;;;;;5091568;28;20056;-69
2023/04/16 08:24:07;;;;;;;11.40;4.43;;;;;;;;;;5092892;28;20097;-68
2023/04/16 08:26:35;;;;;;;9.27;4.70;;;;;;;;;;5092680;28;20498;-68
2023/04/16 08:29:02;;;;;;;8.13;4.82;;;;;;;;;;5092635;28;20040;-68
2023/04/16 08:31:30;;;;;;;11.68;4.97;;;;;;;;;;5092673;28;20040;-68
2023/04/16 08:33:58;;;;;;;12.75;5.05;;;;;;;;;;5091634;28;20040;-68
2023/04/16 08:36:25;;;;;;;10.48;4.70;;;;;;;;;;5092797;28;20040;-69
2023/04/16 08:38:53;;;;;;;13.23;5.70;;;;;;;;;;5091607;28;20036;-68
2023/04/16 08:41:21;;;;;;;13.85;5.75;;;;;;;;;;5092572;28;20478;-69
2023/04/16 08:43:50;;;;;;;13.52;5.28;;;;;;;;;;5092557;28;20456;-68
2023/04/16 08:46:20;;;;;;;10.15;5.63;;;;;;;;;;5092490;28;21154;-69
2023/04/16 08:48:49;;;;;;;14.57;5.85;;;;;;;;;;5092431;28;20040;-68
2023/04/16 08:51:16;;;;;;;17.70;9.90;;;;;;;;;;5092491;28;20097;-68
2023/04/16 08:53:54;;;;;;;13.50;6.82;;;;;;;;;;5091124;28;20044;-69
2023/04/16 08:56:23;;;;;;;12.63;5.70;;;;;;;;;;5092418;28;20527;-68
2023/04/16 08:58:51;;;;;;;11.40;5.55;;;;;;;;;;5092490;28;20075;-69
2023/04/16 09:01:19;;;;;;;11.25;4.70;;;;;;;;;;5092494;28;20486;-68
2023/04/16 09:03:47;;;;;;;13.15;6.47;;;;;;;;;;5092446;28;20040;-69
2023/04/16 09:06:16;;;;;;;13.63;6.15;;;;;;;;;;5092695;28;20131;-69
2023/04/16 09:08:45;;;;;;;10.70;5.03;;;;;;;;;;5092298;28;20028;-68
2023/04/16 09:11:18;;;;;;;11.07;6.10;;;;;;;;;;5092356;28;20036;-68
2023/04/16 09:13:46;;;;;;;11.57;4.90;;;;;;;;;;5092271;28;20036;-69
2023/04/16 09:16:14;;;;;;;16.15;5.50;;;;;;;;;;5092268;28;20062;-68
2023/04/16 09:18:42;;;;;;;17.65;5.50;;;;;;;;;;5094512;28;20072;-68
2023/04/16 09:21:10;;;;;;;13.35;5.40;;;;;;;;;;5095937;28;20070;-68
2023/04/16 09:23:38;;;;;;;11.57;4.60;;;;;;;;;;5095904;28;20036;-68
2023/04/16 09:26:06;;;;;;;11.20;4.25;;;;;;;;;;5095871;28;20028;-68
2023/04/16 09:28:44;;;;;;;11.43;5.32;;;;;;;;;;5078311;28;20048;-68
2023/04/16 09:31:13;;;;;;;13.68;5.78;;;;;;;;;;5096058;28;20037;-68
2023/04/16 09:33:41;;;;;;;11.68;5.00;;;;;;;;;;5095714;28;20040;-68
2023/04/16 09:36:09;;;;;;;10.25;4.88;;;;;;;;;;5094614;28;20040;-68
2023/04/16 09:38:47;;;;;;;11.77;5.40;;;;;;;;;;5095496;28;20098;-68
2023/04/16 09:41:17;;;;;;;12.50;5.30;;;;;;;;;;5095849;28;20389;-68
2023/04/16 09:43:58;;;;;;;12.43;6.57;;;;;;;;;;5094514;28;20409;-68
2023/04/16 09:46:29;;;;;;;13.82;5.13;;;;;;;;;;5095633;28;20048;-69
2023/04/16 09:48:56;;;;;;;15.77;8.07;;;;;;;;;;5094268;28;20402;-68
2023/04/16 09:51:25;;;;;;;10.63;5.75;;;;;;;;;;5095158;28;20074;-68
2023/04/16 09:53:53;;;;;;;13.40;5.88;;;;;;;;;;5095282;28;20040;-68
2023/04/16 09:56:24;;;;;;;10.38;5.43;;;;;;;;;;5095191;28;20048;-69
2023/04/16 09:58:57;;;;;;;13.77;6.00;;;;;;;;;;5095600;28;20119;-69
2023/04/16 10:01:24;;;;;;;12.30;5.90;;;;;;;;;;5095218;28;20052;-67
2023/04/16 10:03:54;;;;;;;14.52;5.43;;;;;;;;;;5095197;28;20063;-67
2023/04/16 10:06:24;;;;;;;13.63;5.07;;;;;;;;;;5095019;28;20082;-69
2023/04/16 10:08:55;;;;;;;12.45;5.68;;;;;;;;;;5094844;28;20040;-69
2023/04/16 10:11:23;;;;;;;11.05;5.18;;;;;;;;;;5094998;28;20120;-69
2023/04/16 10:13:51;;;;;;;8.88;5.18;;;;;;;;;;5095014;28;20051;-67
2023/04/16 10:16:18;;;;;;;11.20;4.93;;;;;;;;;;5094913;28;20058;-67
2023/04/16 10:18:46;;;;;;;11.10;4.97;;;;;;;;;;5094977;28;20323;-67
2023/04/16 10:21:15;;;;;;;14.65;5.20;;;;;;;;;;5094852;28;20485;-69
2023/04/16 10:23:43;;;;;;;13.45;5.10;;;;;;;;;;5095000;28;20043;-70
2023/04/16 10:26:10;;;;;;;14.60;4.68;;;;;;;;;;5094765;28;20055;-69
2023/04/16 10:28:38;;;;;;;10.57;5.28;;;;;;;;;;5093372;28;20040;-69
2023/04/16 10:31:07;;;;;;;9.80;5.00;;;;;;;;;;5094103;28;20139;-69
2023/04/16 10:33:36;;;;;;;9.57;4.50;;;;;;;;;;5094696;28;20128;-67
2023/04/16 10:36:11;;;;;;;10.35;4.53;;;;;;;;;;5094463;28;20074;-68
2023/04/16 10:38:40;;;;;;;14.50;5.03;;;;;;;;;;5093149;28;20040;-68
2023/04/16 10:41:08;;;;;;;10.63;4.72;;;;;;;;;;5093224;28;20054;-67
2023/04/16 10:43:40;;;;;;;11.95;5.07;;;;;;;;;;5094477;28;20097;-67
2023/04/16 10:46:19;;;;;;;12.65;4.55;;;;;;;;;;5093129;28;20405;-67
2023/04/16 10:48:48;;;;;;;10.32;4.53;;;;;;;;;;5093571;28;20044;-68
2023/04/16 10:51:31;;;;;;;9.93;4.40;;;;;;;;;;5094574;28;20028;-68
2023/04/16 10:54:03;;;;;;;12.32;4.55;;;;;;;;;;5094548;28;20036;-68
2023/04/16 10:56:35;;;;;;;13.85;5.70;;;;;;;;;;5093974;28;20056;-68
2023/04/16 10:59:06;;;;;;;17.60;5.18;;;;;;;;;;5093018;28;20052;-68
2023/04/16 11:01:35;;;;;;;16.10;4.95;;;;;;;;;;5094166;28;20048;-68
2023/04/16 11:04:21;;;;;;;10.27;4.63;;;;;;;;;;5093100;28;20143;-68
2023/04/16 11:07:15;;;;;;;12.70;4.45;;;;;;;;;;5094053;28;20089;-68
2023/04/16 11:09:48;;;;;;;12.50;4.25;;;;;;;;;;5093841;28;20485;-68
2023/04/16 11:12:21;;;;;;;9.88;4.57;;;;;;;;;;5093897;28;20422;-68
2023/04/16 11:14:53;;;;;;;10.07;4.47;;;;;;;;;;5093827;28;20040;-68
2023/04/16 11:17:21;;;;;;;14.88;5.10;;;;;;;;;;5094037;28;20040;-68
2023/04/16 11:19:48;;;;;;;8.63;4.03;;;;;;;;;;5093774;28;20040;-68
2023/04/16 11:22:19;;;;;;;11.70;4.43;;;;;;;;;;5093755;28;20078;-68
2023/04/16 11:24:47;;;;;;;9.32;4.28;;;;;;;;;;5093736;28;20039;-68
2023/04/16 11:27:15;;;;;;;10.73;4.18;;;;;;;;;;5092335;28;20039;-68
2023/04/16 11:29:43;;;;;;;10.40;4.40;;;;;;;;;;5093608;28;20044;-69
2023/04/16 11:32:21;;;;;;;10.82;4.90;;;;;;;;;;5093471;28;20043;-68
2023/04/16 11:34:49;;;;;;;8.85;5.38;;;;;;;;;;5093456;28;20044;-68
2023/04/16 11:37:20;;;;;;;7.75;4.68;;;;;;;;;;5093294;28;20075;-68
2023/04/16 11:39:51;;;;;;;10.43;4.63;;;;;;;;;;5093434;28;20035;-70
2023/04/16 11:42:21;;;;;;;12.30;5.38;;;;;;;;;;5091226;28;20500;-68
2023/04/16 11:44:53;;;;;;;9.82;4.70;;;;;;;;;;5093202;28;20079;-68
2023/04/16 11:47:21;;;;;;;9.63;4.03;;;;;;;;;;5092306;28;20493;-68
2023/04/16 11:49:48;;;;;;;8.07;4.10;;;;;;;;;;5093050;28;20040;-68
2023/04/16 11:52:29;;;;;;;9.52;4.38;;;;;;;;;;5092240;28;20093;-68
2023/04/16 11:54:57;;;;;;;12.85;5.10;;;;;;;;;;5093211;28;20064;-68
2023/04/16 11:57:28;;;;;;;14.65;6.70;;;;;;;;;;5092912;28;20105;-68
2023/04/16 11:59:56;;;;;;;11.35;5.15;;;;;;;;;;5093049;28;20044;-68
2023/04/16 12:02:41;;;;;;;11.88;6.10;;;;;;;;;;5093362;28;20490;-68
2023/04/16 12:05:29;;;;;;;11.25;5.75;;;;;;;;;;5093248;28;20043;-68
2023/04/16 12:07:57;;;;;;;11.23;5.60;;;;;;;;;;5091818;28;20036;-70
2023/04/16 12:10:25;;;;;;;11.65;6.60;;;;;;;;;;5093100;28;20090;-69
2023/04/16 12:12:53;;;;;;;10.13;6.10;;;;;;;;;;5093200;28;20408;-68
2023/04/16 12:15:20;;;;;;;13.80;6.13;;;;;;;;;;5093164;28;20040;-68
2023/04/16 12:17:49;;;;;;;13.60;7.82;;;;;;;;;;5093026;28;20044;-69
2023/04/16 12:20:16;;;;;;;14.45;7.43;;;;;;;;;;5093116;28;20094;-68
2023/04/16 12:22:46;;;;;;;13.52;6.70;;;;;;;;;;5093141;28;20044;-68
2023/04/16 12:25:14;;;;;;;12.93;8.82;;;;;;;;;;5093218;28;20040;-68
2023/04/16 12:27:44;;;;;;;21.50;12.88;;;;;;;;;;5093030;28;20048;-68
2023/04/16 12:30:12;;;;;;;20.45;7.60;;;;;;;;;;5092923;28;20036;-68
2023/04/16 12:32:40;;;;;;;16.15;7.28;;;;;;;;;;5093031;28;20044;-69
2023/04/16 12:35:08;;;;;;;14.27;7.25;;;;;;;;;;5093000;28;20036;-68
2023/04/16 12:37:36;;;;;;;16.88;7.78;;;;;;;;;;5093158;28;20044;-68
2023/04/16 12:40:04;;;;;;;16.17;6.72;;;;;;;;;;5092929;28;20040;-68
2023/04/16 12:42:34;;;;;;;12.20;5.47;;;;;;;;;;5091966;28;20044;-68
2023/04/16 12:45:03;;;;;;;14.40;6.00;;;;;;;;;;5091836;28;20482;-69
2023/04/16 12:47:31;;;;;;;12.50;5.40;;;;;;;;;;5092675;28;20078;-68
2023/04/16 12:49:58;;;;;;;13.43;5.82;;;;;;;;;;5092983;28;20039;-66
2023/04/16 12:52:26;;;;;;;13.25;7.03;;;;;;;;;;5093230;28;20040;-66
2023/04/16 12:54:54;;;;;;;16.58;7.35;;;;;;;;;;5096648;28;20032;-65
2023/04/16 12:57:27;;;;;;;20.52;10.18;;;;;;;;;;5096601;28;20390;-66
2023/04/16 12:59:56;;;;;;;19.85;9.98;;;;;;;;;;5095374;28;20044;-67
2023/04/16 13:02:24;;;;;;;21.48;11.20;;;;;;;;;;5096626;28;20075;-66
2023/04/16 13:04:52;;;;;;;21.73;10.93;;;;;;;;;;5096454;28;20040;-66
2023/04/16 13:07:20;;;;;;;19.40;9.98;;;;;;;;;;5096466;28;20044;-66
2023/04/16 13:09:48;;;;;;;18.35;10.18;;;;;;;;;;5096454;28;20098;-66
2023/04/16 13:12:15;;;;;;;16.75;10.80;;;;;;;;;;5095294;28;20067;-67
2023/04/16 13:14:42;;;;;;;21.85;11.80;;;;;;;;;;5096369;28;20047;-67
2023/04/16 13:17:11;;;;;;;16.48;10.57;;;;;;;;;;5096177;28;20043;-67
2023/04/16 13:19:38;;;;;;;17.80;10.35;;;;;;;;;;5096238;28;20079;-67
2023/04/16 13:22:06;;;;;;;19.88;10.25;;;;;;;;;;5096172;28;20462;-66
2023/04/16 13:24:34;;;;;;;18.20;11.65;;;;;;;;;;5096682;28;20040;-67
2023/04/16 13:27:01;;;;;;;19.48;10.70;;;;;;;;;;5078274;28;20409;-66
2023/04/16 13:29:28;;;;;;;15.90;10.23;;;;;;;;;;5096093;28;20040;-67
2023/04/16 13:31:56;;;;;;;19.70;8.77;;;;;;;;;;5095976;28;20144;-66
2023/04/16 13:34:24;;;;;;;18.02;8.70;;;;;;;;;;5096035;28;20032;-67
2023/04/16 13:36:51;;;;;;;11.73;6.28;;;;;;;;;;5095805;28;20131;-70
2023/04/16 13:39:19;;;;;;;15.65;7.15;;;;;;;;;;5095797;28;20083;-67
2023/04/16 13:41:47;;;;;;;14.35;9.10;;;;;;;;;;5095746;28;20033;-67
2023/04/16 13:44:15;;;;;;;19.33;6.80;;;;;;;;;;5095767;28;20036;-64
2023/04/16 13:46:46;;;;;;;28.33;12.65;;;;;;;;;;5095610;28;20082;-66
2023/04/16 13:49:15;;;;;;;22.05;10.90;;;;;;;;;;5095720;28;20516;-68
2023/04/16 13:51:46;;;;;;;21.15;11.35;;;;;;;;;;5095536;28;20097;-68
2023/04/16 13:54:13;;;;;;;17.10;10.75;;;;;;;;;;5095517;28;20123;-68
2023/04/16 13:56:41;;;;;;;17.00;10.38;;;;;;;;;;5095231;28;20048;-67
2023/04/16 13:59:08;;;;;;;14.93;9.13;;;;;;;;;;5095603;28;20536;-68
2023/04/16 14:01:36;;;;;;;18.55;9.05;;;;;;;;;;5095677;28;20056;-68
2023/04/16 14:04:05;;;;;;;15.32;8.95;;;;;;;;;;5094597;28;20048;-67
2023/04/16 14:06:33;;;;;;;13.45;7.75;;;;;;;;;;5095179;28;20060;-68
2023/04/16 14:09:01;;;;;;;14.18;7.38;;;;;;;;;;5095316;28;20047;-67
2023/04/16 14:11:29;;;;;;;12.90;7.57;;;;;;;;;;5095288;28;20036;-66
2023/04/16 14:13:57;;;;;;;9.07;6.00;;;;;;;;;;5095181;28;20048;-66
2023/04/16 14:16:24;;;;;;;10.95;6.25;;;;;;;;;;5095235;28;20105;-66
2023/04/16 14:18:52;;;;;;;19.75;7.75;;;;;;;;;;5094994;28;20040;-66
2023/04/16 14:21:19;;;;;;;17.90;8.18;;;;;;;;;;5095177;28;20043;-66
2023/04/16 14:23:47;;;;;;;15.85;7.63;;;;;;;;;;5094976;28;20071;-66
2023/04/16 14:26:14;;;;;;;12.88;8.18;;;;;;;;;;5095237;28;20044;-67
2023/04/16 14:28:42;;;;;;;11.65;7.55;;;;;;;;;;5094913;28;20044;-67
2023/04/16 14:31:09;;;;;;;11.13;6.82;;;;;;;;;;5094996;28;20036;-68
2023/04/16 14:33:37;;;;;;;10.40;6.65;;;;;;;;;;5094886;28;20048;-67
2023/04/16 14:36:05;;;;;;;9.60;6.53;;;;;;;;;;5094797;28;20040;-67
2023/04/16 14:38:32;;;;;;;9.60;7.00;;;;;;;;;;5094807;28;20082;-67